Terminal Aerodrome Forecast
Issued by NWS

Home | Current Version | Previous Version | Text Only | Print | Product List | Glossary On
Versions: 1 2 3 4 5 6 7 8 9 10 11 12 13 14 15 16 17 18
674
FTUS46 KSEW 181125
TAFCLM
TAF
KCLM 181125Z 1812/1912 29010G18KT 6SM -RA BR OVC012
     FM181600 29008KT P6SM SCT025 BKN050 BKN080
     FM190300 VRB03KT P6SM -RA BKN030 OVC050
     FM190600 VRB03KT 5SM -RA BR BKN015 OVC030=

USA.gov is the U.S. government's official web portal to all federal, state and local government web resources and services.